sensor_id;sensor_type;location;lat;lon;timestamp;pressure;altitude;pressure_sealevel;temperature;humidity
79707;BME280;69200;53.612;-2.416;2023-05-23T00:00:56;100952.25;;;12.81;69.90
79707;BME280;69200;53.612;-2.416;2023-05-23T00:03:22;100958.94;;;12.85;69.34
79707;BME280;69200;53.612;-2.416;2023-05-23T00:05:48;100954.69;;;12.89;70.37
79707;BME280;69200;53.612;-2.416;2023-05-23T00:08:14;100965.72;;;12.94;69.23
79707;BME280;69200;53.612;-2.416;2023-05-23T00:10:40;100954.41;;;12.79;70.36
79707;BME280;69200;53.612;-2.416;2023-05-23T00:13:05;100957.72;;;12.63;69.59
79707;BME280;69200;53.612;-2.416;2023-05-23T00:15:36;100963.47;;;12.73;71.18
79707;BME280;69200;53.612;-2.416;2023-05-23T00:18:02;100965.44;;;12.84;70.70
79707;BME280;69200;53.612;-2.416;2023-05-23T00:20:27;100966.88;;;12.86;70.09
79707;BME280;69200;53.612;-2.416;2023-05-23T00:22:54;100969.44;;;12.81;70.10
79707;BME280;69200;53.612;-2.416;2023-05-23T00:25:23;100967.00;;;12.73;70.64
79707;BME280;69200;53.612;-2.416;2023-05-23T00:27:48;100963.63;;;12.59;70.57
79707;BME280;69200;53.612;-2.416;2023-05-23T00:30:14;100974.06;;;12.44;70.32
79707;BME280;69200;53.612;-2.416;2023-05-23T00:32:39;100963.47;;;12.54;71.21
79707;BME280;69200;53.612;-2.416;2023-05-23T00:35:05;100972.22;;;12.56;70.45
79707;BME280;69200;53.612;-2.416;2023-05-23T00:37:31;100969.06;;;12.78;70.57
79707;BME280;69200;53.612;-2.416;2023-05-23T00:39:56;100961.09;;;13.13;68.86
79707;BME280;69200;53.612;-2.416;2023-05-23T00:42:21;100965.41;;;13.02;69.82
79707;BME280;69200;53.612;-2.416;2023-05-23T00:44:47;100962.72;;;12.84;67.64
79707;BME280;69200;53.612;-2.416;2023-05-23T00:47:12;100957.94;;;12.79;66.21
79707;BME280;69200;53.612;-2.416;2023-05-23T00:49:38;100963.91;;;12.88;66.75
79707;BME280;69200;53.612;-2.416;2023-05-23T00:52:04;100960.13;;;12.71;66.82
79707;BME280;69200;53.612;-2.416;2023-05-23T00:54:30;100958.63;;;12.56;67.51
79707;BME280;69200;53.612;-2.416;2023-05-23T00:56:56;100953.47;;;12.48;67.51
79707;BME280;69200;53.612;-2.416;2023-05-23T00:59:23;100952.91;;;12.21;67.75
79707;BME280;69200;53.612;-2.416;2023-05-23T01:01:50;100953.25;;;12.07;68.58
79707;BME280;69200;53.612;-2.416;2023-05-23T01:04:17;100949.72;;;11.81;69.38
79707;BME280;69200;53.612;-2.416;2023-05-23T01:06:44;100956.59;;;11.84;69.59
79707;BME280;69200;53.612;-2.416;2023-05-23T01:09:17;100962.63;;;11.86;69.53
79707;BME280;69200;53.612;-2.416;2023-05-23T01:15:02;100969.25;;;11.65;71.00
79707;BME280;69200;53.612;-2.416;2023-05-23T01:17:40;100965.53;;;11.59;71.53
79707;BME280;69200;53.612;-2.416;2023-05-23T01:20:11;100967.91;;;11.81;70.21
79707;BME280;69200;53.612;-2.416;2023-05-23T01:27:52;100974.84;;;12.01;69.55
79707;BME280;69200;53.612;-2.416;2023-05-23T01:30:20;100980.66;;;12.12;69.37
79707;BME280;69200;53.612;-2.416;2023-05-23T01:32:49;100974.56;;;12.10;68.80
79707;BME280;69200;53.612;-2.416;2023-05-23T01:35:17;100971.16;;;11.96;69.04
79707;BME280;69200;53.612;-2.416;2023-05-23T01:37:46;100976.13;;;12.24;69.26
79707;BME280;69200;53.612;-2.416;2023-05-23T01:40:11;100979.91;;;11.98;70.85
79707;BME280;69200;53.612;-2.416;2023-05-23T01:42:37;100983.22;;;12.00;69.86
79707;BME280;69200;53.612;-2.416;2023-05-23T01:45:03;100975.63;;;12.09;69.88
79707;BME280;69200;53.612;-2.416;2023-05-23T01:47:28;100990.00;;;12.16;69.32
79707;BME280;69200;53.612;-2.416;2023-05-23T01:49:55;100986.00;;;11.93;69.50
79707;BME280;69200;53.612;-2.416;2023-05-23T01:52:22;100982.31;;;11.88;70.27
79707;BME280;69200;53.612;-2.416;2023-05-23T01:54:48;100981.75;;;11.72;70.25
79707;BME280;69200;53.612;-2.416;2023-05-23T01:57:15;100989.63;;;11.87;69.99
79707;BME280;69200;53.612;-2.416;2023-05-23T01:59:40;100986.19;;;11.98;70.06
79707;BME280;69200;53.612;-2.416;2023-05-23T02:02:06;100986.97;;;12.06;71.18
79707;BME280;69200;53.612;-2.416;2023-05-23T02:04:31;100988.03;;;12.04;68.92
79707;BME280;69200;53.612;-2.416;2023-05-23T02:06:56;100992.50;;;11.92;69.99
79707;BME280;69200;53.612;-2.416;2023-05-23T02:09:22;100995.72;;;12.08;69.53
79707;BME280;69200;53.612;-2.416;2023-05-23T02:11:47;100997.25;;;12.03;71.25
79707;BME280;69200;53.612;-2.416;2023-05-23T02:14:12;101004.47;;;12.35;69.20
79707;BME280;69200;53.612;-2.416;2023-05-23T02:16:38;100996.56;;;12.08;69.46
79707;BME280;69200;53.612;-2.416;2023-05-23T02:19:03;101001.06;;;12.21;70.20
79707;BME280;69200;53.612;-2.416;2023-05-23T02:21:29;101005.56;;;12.09;70.31
79707;BME280;69200;53.612;-2.416;2023-05-23T02:23:56;101002.50;;;11.98;71.98
79707;BME280;69200;53.612;-2.416;2023-05-23T02:26:21;100998.28;;;12.02;69.64
79707;BME280;69200;53.612;-2.416;2023-05-23T02:28:46;101003.59;;;11.91;70.43
79707;BME280;69200;53.612;-2.416;2023-05-23T02:31:12;100995.00;;;12.19;69.58
79707;BME280;69200;53.612;-2.416;2023-05-23T02:33:37;100991.63;;;11.98;70.37
79707;BME280;69200;53.612;-2.416;2023-05-23T02:36:03;100990.47;;;12.13;70.64
79707;BME280;69200;53.612;-2.416;2023-05-23T02:38:29;100991.06;;;11.90;69.92
79707;BME280;69200;53.612;-2.416;2023-05-23T02:40:55;100994.88;;;11.82;71.54
79707;BME280;69200;53.612;-2.416;2023-05-23T02:43:22;100994.06;;;11.75;71.40
79707;BME280;69200;53.612;-2.416;2023-05-23T02:45:47;100978.25;;;11.65;71.16
79707;BME280;69200;53.612;-2.416;2023-05-23T02:48:13;100989.13;;;11.65;71.11
79707;BME280;69200;53.612;-2.416;2023-05-23T02:50:38;100991.44;;;11.62;71.21
79707;BME280;69200;53.612;-2.416;2023-05-23T02:53:03;100985.19;;;11.55;71.61
79707;BME280;69200;53.612;-2.416;2023-05-23T02:55:29;100991.78;;;11.72;72.37
79707;BME280;69200;53.612;-2.416;2023-05-23T02:57:56;100987.78;;;11.74;72.21
79707;BME280;69200;53.612;-2.416;2023-05-23T03:00:23;100985.34;;;11.66;72.90
79707;BME280;69200;53.612;-2.416;2023-05-23T03:02:48;100991.34;;;11.75;72.33
79707;BME280;69200;53.612;-2.416;2023-05-23T03:05:14;100982.44;;;11.93;70.03
79707;BME280;69200;53.612;-2.416;2023-05-23T03:07:39;100985.84;;;11.88;70.83
79707;BME280;69200;53.612;-2.416;2023-05-23T03:10:05;100989.44;;;11.82;69.99
79707;BME280;69200;53.612;-2.416;2023-05-23T03:12:31;100982.47;;;11.55;71.38
79707;BME280;69200;53.612;-2.416;2023-05-23T03:14:56;100981.78;;;11.66;70.06
79707;BME280;69200;53.612;-2.416;2023-05-23T03:17:24;100989.34;;;11.95;69.91
79707;BME280;69200;53.612;-2.416;2023-05-23T03:19:49;100984.44;;;11.79;70.36
79707;BME280;69200;53.612;-2.416;2023-05-23T03:22:15;100980.09;;;11.71;71.83
79707;BME280;69200;53.612;-2.416;2023-05-23T03:24:40;100982.34;;;11.74;72.73
79707;BME280;69200;53.612;-2.416;2023-05-23T03:27:06;100975.94;;;11.62;72.94
79707;BME280;69200;53.612;-2.416;2023-05-23T03:29:31;100983.41;;;11.73;72.70
79707;BME280;69200;53.612;-2.416;2023-05-23T03:31:57;100980.03;;;11.78;72.97
79707;BME280;69200;53.612;-2.416;2023-05-23T03:34:22;100969.97;;;11.85;73.06
79707;BME280;69200;53.612;-2.416;2023-05-23T03:36:48;100971.28;;;11.69;72.81
79707;BME280;69200;53.612;-2.416;2023-05-23T03:39:13;100986.72;;;11.82;73.44
79707;BME280;69200;53.612;-2.416;2023-05-23T03:41:39;100975.31;;;11.98;71.11
79707;BME280;69200;53.612;-2.416;2023-05-23T03:44:04;100971.53;;;11.99;70.34
79707;BME280;69200;53.612;-2.416;2023-05-23T03:46:30;100982.59;;;12.04;70.19
79707;BME280;69200;53.612;-2.416;2023-05-23T03:48:55;100984.78;;;11.89;71.60
79707;BME280;69200;53.612;-2.416;2023-05-23T03:51:21;100984.53;;;11.97;70.43
79707;BME280;69200;53.612;-2.416;2023-05-23T03:53:46;100987.06;;;11.92;70.37
79707;BME280;69200;53.612;-2.416;2023-05-23T03:56:11;100989.63;;;11.87;70.49
79707;BME280;69200;53.612;-2.416;2023-05-23T03:58:37;100995.94;;;11.81;72.06
79707;BME280;69200;53.612;-2.416;2023-05-23T04:01:02;100988.63;;;11.82;72.24
79707;BME280;69200;53.612;-2.416;2023-05-23T04:03:29;100989.97;;;11.97;72.68
79707;BME280;69200;53.612;-2.416;2023-05-23T04:05:57;100992.63;;;11.72;72.94
79707;BME280;69200;53.612;-2.416;2023-05-23T04:08:22;100995.06;;;11.87;72.15
79707;BME280;69200;53.612;-2.416;2023-05-23T04:10:48;100990.63;;;11.93;70.64
79707;BME280;69200;53.612;-2.416;2023-05-23T04:13:14;100988.16;;;12.10;69.81
79707;BME280;69200;53.612;-2.416;2023-05-23T04:15:39;100991.44;;;12.18;69.28
79707;BME280;69200;53.612;-2.416;2023-05-23T04:18:05;100992.44;;;12.24;68.04
79707;BME280;69200;53.612;-2.416;2023-05-23T04:20:32;101001.75;;;11.85;70.44
79707;BME280;69200;53.612;-2.416;2023-05-23T04:22:57;100997.56;;;11.89;71.35
79707;BME280;69200;53.612;-2.416;2023-05-23T04:25:22;101004.22;;;11.93;72.81
79707;BME280;69200;53.612;-2.416;2023-05-23T04:27:48;101002.22;;;11.82;73.32
79707;BME280;69200;53.612;-2.416;2023-05-23T04:30:13;101000.09;;;11.77;72.40
79707;BME280;69200;53.612;-2.416;2023-05-23T04:32:41;100997.84;;;11.81;72.94
79707;BME280;69200;53.612;-2.416;2023-05-23T04:35:07;100991.66;;;11.92;72.83
79707;BME280;69200;53.612;-2.416;2023-05-23T04:37:33;100998.16;;;11.91;73.29
79707;BME280;69200;53.612;-2.416;2023-05-23T04:39:59;100999.22;;;11.90;72.55
79707;BME280;69200;53.612;-2.416;2023-05-23T04:42:25;100984.53;;;11.97;72.32
79707;BME280;69200;53.612;-2.416;2023-05-23T04:44:51;100992.09;;;11.95;72.16
79707;BME280;69200;53.612;-2.416;2023-05-23T04:47:21;101000.25;;;12.20;71.75
79707;BME280;69200;53.612;-2.416;2023-05-23T04:49:49;100998.94;;;12.23;71.83
79707;BME280;69200;53.612;-2.416;2023-05-23T04:52:14;100999.72;;;12.30;70.62
79707;BME280;69200;53.612;-2.416;2023-05-23T04:54:43;100999.44;;;12.38;72.24
79707;BME280;69200;53.612;-2.416;2023-05-23T04:57:10;100997.88;;;12.49;71.16
79707;BME280;69200;53.612;-2.416;2023-05-23T04:59:37;100992.59;;;12.54;70.37
79707;BME280;69200;53.612;-2.416;2023-05-23T05:02:02;100996.63;;;12.70;70.15
79707;BME280;69200;53.612;-2.416;2023-05-23T05:04:28;101002.19;;;12.75;70.42
79707;BME280;69200;53.612;-2.416;2023-05-23T05:06:56;101002.66;;;12.72;70.50
79707;BME280;69200;53.612;-2.416;2023-05-23T05:09:22;101001.00;;;12.71;68.91
79707;BME280;69200;53.612;-2.416;2023-05-23T05:11:47;100985.66;;;12.76;69.82
79707;BME280;69200;53.612;-2.416;2023-05-23T05:14:12;100993.41;;;12.73;68.60
79707;BME280;69200;53.612;-2.416;2023-05-23T05:16:38;100997.81;;;12.74;68.80
79707;BME280;69200;53.612;-2.416;2023-05-23T05:19:04;101000.84;;;12.84;69.99
79707;BME280;69200;53.612;-2.416;2023-05-23T05:21:29;101006.06;;;13.04;70.01
79707;BME280;69200;53.612;-2.416;2023-05-23T05:23:55;101003.09;;;13.05;70.39
79707;BME280;69200;53.612;-2.416;2023-05-23T05:26:22;100997.13;;;12.97;69.42
79707;BME280;69200;53.612;-2.416;2023-05-23T05:28:47;101000.44;;;12.99;69.87
79707;BME280;69200;53.612;-2.416;2023-05-23T05:31:13;101006.69;;;12.69;69.66
79707;BME280;69200;53.612;-2.416;2023-05-23T05:33:40;101003.34;;;12.85;70.90
79707;BME280;69200;53.612;-2.416;2023-05-23T05:36:06;101007.63;;;12.75;69.72
79707;BME280;69200;53.612;-2.416;2023-05-23T05:38:32;100991.91;;;12.95;69.69
79707;BME280;69200;53.612;-2.416;2023-05-23T05:40:57;100984.94;;;13.18;69.12
79707;BME280;69200;53.612;-2.416;2023-05-23T05:43:24;100990.34;;;13.24;68.66
79707;BME280;69200;53.612;-2.416;2023-05-23T05:45:49;100985.75;;;13.18;68.70
79707;BME280;69200;53.612;-2.416;2023-05-23T05:48:15;100991.66;;;13.63;69.73
79707;BME280;69200;53.612;-2.416;2023-05-23T05:50:40;100991.94;;;13.85;67.76
79707;BME280;69200;53.612;-2.416;2023-05-23T05:53:09;100992.38;;;14.12;67.53
79707;BME280;69200;53.612;-2.416;2023-05-23T05:55:35;101002.00;;;14.38;64.92
79707;BME280;69200;53.612;-2.416;2023-05-23T05:58:00;100999.66;;;14.53;65.08
79707;BME280;69200;53.612;-2.416;2023-05-23T06:00:25;100999.63;;;14.65;64.42
79707;BME280;69200;53.612;-2.416;2023-05-23T06:02:51;101000.94;;;14.51;64.81
79707;BME280;69200;53.612;-2.416;2023-05-23T06:05:17;101002.25;;;14.37;63.06
79707;BME280;69200;53.612;-2.416;2023-05-23T06:07:43;101004.16;;;14.60;65.12
79707;BME280;69200;53.612;-2.416;2023-05-23T06:10:09;101007.94;;;14.82;64.40
79707;BME280;69200;53.612;-2.416;2023-05-23T06:12:37;100991.28;;;14.83;63.20
79707;BME280;69200;53.612;-2.416;2023-05-23T06:15:03;100986.81;;;15.18;62.46
79707;BME280;69200;53.612;-2.416;2023-05-23T06:17:29;100985.94;;;15.29;61.23
79707;BME280;69200;53.612;-2.416;2023-05-23T06:19:54;100968.13;;;15.26;61.74
79707;BME280;69200;53.612;-2.416;2023-05-23T06:22:19;100973.56;;;15.55;61.73
79707;BME280;69200;53.612;-2.416;2023-05-23T06:24:45;100977.81;;;15.91;60.27
79707;BME280;69200;53.612;-2.416;2023-05-23T06:27:11;100977.31;;;16.11;58.98
79707;BME280;69200;53.612;-2.416;2023-05-23T06:29:37;100979.31;;;15.82;57.62
79707;BME280;69200;53.612;-2.416;2023-05-23T06:32:02;100981.28;;;16.03;57.30
79707;BME280;69200;53.612;-2.416;2023-05-23T06:34:28;100984.22;;;15.97;57.84
79707;BME280;69200;53.612;-2.416;2023-05-23T06:36:54;100981.28;;;15.86;58.55
79707;BME280;69200;53.612;-2.416;2023-05-23T06:39:19;100988.50;;;15.76;56.84
79707;BME280;69200;53.612;-2.416;2023-05-23T06:41:46;100984.84;;;15.42;57.09
79707;BME280;69200;53.612;-2.416;2023-05-23T06:44:11;100992.75;;;15.26;59.01
79707;BME280;69200;53.612;-2.416;2023-05-23T06:46:36;100999.81;;;15.39;58.75
79707;BME280;69200;53.612;-2.416;2023-05-23T06:49:02;100995.94;;;15.23;58.31
79707;BME280;69200;53.612;-2.416;2023-05-23T06:51:27;101008.09;;;15.16;57.28
79707;BME280;69200;53.612;-2.416;2023-05-23T06:53:52;101000.41;;;15.41;59.62
79707;BME280;69200;53.612;-2.416;2023-05-23T06:56:21;101013.88;;;15.31;56.54
79707;BME280;69200;53.612;-2.416;2023-05-23T06:58:46;101008.81;;;15.51;57.21
79707;BME280;69200;53.612;-2.416;2023-05-23T07:01:11;101013.44;;;15.79;57.81
79707;BME280;69200;53.612;-2.416;2023-05-23T07:03:37;101010.31;;;15.87;57.03
79707;BME280;69200;53.612;-2.416;2023-05-23T07:06:06;101005.66;;;16.72;54.41
79707;BME280;69200;53.612;-2.416;2023-05-23T07:08:31;101015.38;;;15.95;54.64
79707;BME280;69200;53.612;-2.416;2023-05-23T07:10:57;101016.41;;;15.89;55.80
79707;BME280;69200;53.612;-2.416;2023-05-23T07:13:22;101020.28;;;16.27;55.84
79707;BME280;69200;53.612;-2.416;2023-05-23T07:15:47;101025.88;;;16.32;56.16
79707;BME280;69200;53.612;-2.416;2023-05-23T07:18:13;101027.75;;;15.81;54.92
79707;BME280;69200;53.612;-2.416;2023-05-23T07:20:38;101035.91;;;15.64;55.81
79707;BME280;69200;53.612;-2.416;2023-05-23T07:23:03;101034.22;;;15.63;57.42
79707;BME280;69200;53.612;-2.416;2023-05-23T07:25:29;101034.19;;;15.75;56.29
79707;BME280;69200;53.612;-2.416;2023-05-23T07:27:54;101029.69;;;15.41;56.93
79707;BME280;69200;53.612;-2.416;2023-05-23T07:30:20;101036.00;;;15.29;57.29
79707;BME280;69200;53.612;-2.416;2023-05-23T07:32:47;101030.63;;;15.34;59.27
79707;BME280;69200;53.612;-2.416;2023-05-23T07:35:14;101023.97;;;15.30;59.93
79707;BME280;69200;53.612;-2.416;2023-05-23T07:37:39;101026.72;;;15.87;58.64
79707;BME280;69200;53.612;-2.416;2023-05-23T07:40:05;101025.22;;;15.80;57.71
79707;BME280;69200;53.612;-2.416;2023-05-23T07:42:33;101026.97;;;15.29;58.17
79707;BME280;69200;53.612;-2.416;2023-05-23T07:44:59;101023.91;;;15.25;59.74
79707;BME280;69200;53.612;-2.416;2023-05-23T07:47:25;101017.41;;;15.72;58.32
79707;BME280;69200;53.612;-2.416;2023-05-23T07:49:51;101022.94;;;15.88;58.50
79707;BME280;69200;53.612;-2.416;2023-05-23T07:52:17;101023.94;;;15.99;57.20
79707;BME280;69200;53.612;-2.416;2023-05-23T07:54:42;101017.47;;;15.88;56.50
79707;BME280;69200;53.612;-2.416;2023-05-23T07:57:08;101020.13;;;16.34;56.13
79707;BME280;69200;53.612;-2.416;2023-05-23T07:59:34;101017.97;;;16.69;55.85
79707;BME280;69200;53.612;-2.416;2023-05-23T08:02:00;101014.41;;;16.91;55.41
79707;BME280;69200;53.612;-2.416;2023-05-23T08:04:27;101010.69;;;17.19;54.97
79707;BME280;69200;53.612;-2.416;2023-05-23T08:06:52;101018.00;;;17.35;55.20
79707;BME280;69200;53.612;-2.416;2023-05-23T08:09:19;101012.31;;;17.42;53.66
79707;BME280;69200;53.612;-2.416;2023-05-23T08:11:45;101013.09;;;17.37;55.20
79707;BME280;69200;53.612;-2.416;2023-05-23T08:14:10;101014.81;;;17.43;54.62
79707;BME280;69200;53.612;-2.416;2023-05-23T08:16:36;101015.91;;;17.42;54.11
79707;BME280;69200;53.612;-2.416;2023-05-23T08:19:02;101016.47;;;17.44;55.47
79707;BME280;69200;53.612;-2.416;2023-05-23T08:21:27;101021.38;;;17.42;55.13
79707;BME280;69200;53.612;-2.416;2023-05-23T08:23:52;101023.47;;;17.57;54.55
79707;BME280;69200;53.612;-2.416;2023-05-23T08:26:18;101007.66;;;17.42;55.37
79707;BME280;69200;53.612;-2.416;2023-05-23T08:28:43;101012.53;;;17.13;55.45
79707;BME280;69200;53.612;-2.416;2023-05-23T08:31:09;101012.25;;;17.37;56.13
79707;BME280;69200;53.612;-2.416;2023-05-23T08:33:35;101014.91;;;17.53;55.02
79707;BME280;69200;53.612;-2.416;2023-05-23T08:36:00;101011.44;;;17.36;56.47
79707;BME280;69200;53.612;-2.416;2023-05-23T08:38:26;101010.63;;;17.62;55.56
79707;BME280;69200;53.612;-2.416;2023-05-23T08:40:51;101003.47;;;17.34;55.78
79707;BME280;69200;53.612;-2.416;2023-05-23T08:43:18;101005.31;;;17.29;56.34
79707;BME280;69200;53.612;-2.416;2023-05-23T08:45:44;101015.47;;;17.55;56.15
79707;BME280;69200;53.612;-2.416;2023-05-23T08:48:12;101005.28;;;17.73;55.94
79707;BME280;69200;53.612;-2.416;2023-05-23T08:50:41;101007.56;;;17.81;55.36
79707;BME280;69200;53.612;-2.416;2023-05-23T08:53:08;101013.78;;;17.49;55.54
79707;BME280;69200;53.612;-2.416;2023-05-23T08:55:36;101007.94;;;17.68;55.59
79707;BME280;69200;53.612;-2.416;2023-05-23T08:58:02;101014.41;;;18.10;55.30
79707;BME280;69200;53.612;-2.416;2023-05-23T09:00:28;101011.91;;;18.09;54.71
79707;BME280;69200;53.612;-2.416;2023-05-23T09:02:54;101009.16;;;17.77;54.57
79707;BME280;69200;53.612;-2.416;2023-05-23T09:05:20;101007.94;;;17.41;55.88
79707;BME280;69200;53.612;-2.416;2023-05-23T09:07:47;101011.72;;;17.61;56.77
79707;BME280;69200;53.612;-2.416;2023-05-23T09:10:13;101006.94;;;17.74;55.55
79707;BME280;69200;53.612;-2.416;2023-05-23T09:12:41;101016.16;;;17.41;56.00
79707;BME280;69200;53.612;-2.416;2023-05-23T09:15:08;101013.31;;;17.57;56.42
79707;BME280;69200;53.612;-2.416;2023-05-23T09:17:35;101014.19;;;17.63;55.96
79707;BME280;69200;53.612;-2.416;2023-05-23T09:20:02;101019.38;;;17.59;56.84
79707;BME280;69200;53.612;-2.416;2023-05-23T09:22:29;101017.69;;;18.07;55.45
79707;BME280;69200;53.612;-2.416;2023-05-23T09:24:55;101012.91;;;17.71;55.95
79707;BME280;69200;53.612;-2.416;2023-05-23T09:27:21;101013.56;;;18.10;54.56
79707;BME280;69200;53.612;-2.416;2023-05-23T09:29:48;101023.78;;;18.14;53.48
79707;BME280;69200;53.612;-2.416;2023-05-23T09:32:17;101019.63;;;18.12;52.39
79707;BME280;69200;53.612;-2.416;2023-05-23T09:34:57;101016.16;;;17.89;52.85
79707;BME280;69200;53.612;-2.416;2023-05-23T09:37:29;101016.53;;;17.49;53.63
79707;BME280;69200;53.612;-2.416;2023-05-23T09:40:02;101016.72;;;17.43;53.74
79707;BME280;69200;53.612;-2.416;2023-05-23T09:42:31;101012.31;;;17.42;54.80
79707;BME280;69200;53.612;-2.416;2023-05-23T09:45:00;101010.13;;;17.66;54.34
79707;BME280;69200;53.612;-2.416;2023-05-23T09:47:25;101013.19;;;17.47;55.54
79707;BME280;69200;53.612;-2.416;2023-05-23T09:49:51;101014.25;;;17.41;55.75
79707;BME280;69200;53.612;-2.416;2023-05-23T09:52:17;101015.09;;;17.47;54.37
79707;BME280;69200;53.612;-2.416;2023-05-23T09:54:44;101016.16;;;17.19;55.47
79707;BME280;69200;53.612;-2.416;2023-05-23T09:57:11;101006.34;;;17.72;54.50
79707;BME280;69200;53.612;-2.416;2023-05-23T09:59:47;101013.25;;;18.38;53.29
79707;BME280;69200;53.612;-2.416;2023-05-23T10:02:16;101006.69;;;18.07;51.98
79707;BME280;69200;53.612;-2.416;2023-05-23T10:04:49;101006.41;;;17.77;52.91
79707;BME280;69200;53.612;-2.416;2023-05-23T10:07:19;101000.53;;;17.41;53.48
79707;BME280;69200;53.612;-2.416;2023-05-23T10:09:53;101004.56;;;17.12;54.00
79707;BME280;69200;53.612;-2.416;2023-05-23T10:15:10;100996.84;;;17.57;51.86
79707;BME280;69200;53.612;-2.416;2023-05-23T10:18:09;100995.56;;;17.65;52.22
79707;BME280;69200;53.612;-2.416;2023-05-23T10:20:38;100996.31;;;17.33;52.93
79707;BME280;69200;53.612;-2.416;2023-05-23T10:23:04;100992.56;;;17.18;54.78
79707;BME280;69200;53.612;-2.416;2023-05-23T10:25:30;100995.06;;;17.46;53.39
79707;BME280;69200;53.612;-2.416;2023-05-23T10:27:57;100993.97;;;17.47;53.42
79707;BME280;69200;53.612;-2.416;2023-05-23T10:30:24;100987.81;;;17.35;53.66
79707;BME280;69200;53.612;-2.416;2023-05-23T10:32:51;100982.88;;;17.86;52.22
79707;BME280;69200;53.612;-2.416;2023-05-23T10:35:36;100991.78;;;17.98;51.23
79707;BME280;69200;53.612;-2.416;2023-05-23T10:38:08;100988.16;;;17.66;53.58
79707;BME280;69200;53.612;-2.416;2023-05-23T10:44:09;100992.22;;;18.59;50.90
79707;BME280;69200;53.612;-2.416;2023-05-23T10:49:42;100985.06;;;19.06;50.32
79707;BME280;69200;53.612;-2.416;2023-05-23T10:52:10;100990.25;;;19.70;48.99
79707;BME280;69200;53.612;-2.416;2023-05-23T10:57:15;100972.88;;;19.59;49.23
79707;BME280;69200;53.612;-2.416;2023-05-23T10:59:41;100996.59;;;19.65;49.11
79707;BME280;69200;53.612;-2.416;2023-05-23T11:02:14;100995.75;;;19.70;47.80
79707;BME280;69200;53.612;-2.416;2023-05-23T11:04:41;100999.72;;;19.21;49.14
79707;BME280;69200;53.612;-2.416;2023-05-23T11:07:35;101002.91;;;18.98;50.27
79707;BME280;69200;53.612;-2.416;2023-05-23T11:12:44;100998.84;;;18.63;49.62
79707;BME280;69200;53.612;-2.416;2023-05-23T11:17:56;100985.28;;;18.52;50.50
79707;BME280;69200;53.612;-2.416;2023-05-23T11:20:24;100996.38;;;18.62;50.15
79707;BME280;69200;53.612;-2.416;2023-05-23T11:23:01;100998.22;;;18.93;50.42
79707;BME280;69200;53.612;-2.416;2023-05-23T11:25:43;100986.97;;;19.00;48.47
79707;BME280;69200;53.612;-2.416;2023-05-23T11:28:11;100990.59;;;19.16;48.18
79707;BME280;69200;53.612;-2.416;2023-05-23T11:30:37;100991.50;;;19.26;48.60
79707;BME280;69200;53.612;-2.416;2023-05-23T11:33:10;100992.53;;;19.10;48.83
79707;BME280;69200;53.612;-2.416;2023-05-23T11:35:45;100999.94;;;19.05;49.68
79707;BME280;69200;53.612;-2.416;2023-05-23T11:38:13;100997.84;;;18.69;50.43
79707;BME280;69200;53.612;-2.416;2023-05-23T11:40:41;101001.00;;;18.98;50.66
79707;BME280;69200;53.612;-2.416;2023-05-23T11:43:09;101004.75;;;18.82;50.23
79707;BME280;69200;53.612;-2.416;2023-05-23T11:45:36;100991.84;;;18.83;49.85
79707;BME280;69200;53.612;-2.416;2023-05-23T11:48:12;100994.75;;;19.18;49.15
79707;BME280;69200;53.612;-2.416;2023-05-23T11:50:52;100991.44;;;19.16;48.89
79707;BME280;69200;53.612;-2.416;2023-05-23T11:53:20;100995.13;;;19.52;48.26
79707;BME280;69200;53.612;-2.416;2023-05-23T11:55:56;101000.63;;;19.47;47.98
79707;BME280;69200;53.612;-2.416;2023-05-23T11:58:27;101000.97;;;19.61;48.80
79707;BME280;69200;53.612;-2.416;2023-05-23T12:01:13;101005.16;;;19.99;46.43
79707;BME280;69200;53.612;-2.416;2023-05-23T12:03:49;101001.75;;;19.51;47.68
79707;BME280;69200;53.612;-2.416;2023-05-23T12:06:19;100988.31;;;19.96;46.64
79707;BME280;69200;53.612;-2.416;2023-05-23T12:08:48;100988.34;;;20.11;46.58
79707;BME280;69200;53.612;-2.416;2023-05-23T12:11:13;100983.38;;;20.08;46.09
79707;BME280;69200;53.612;-2.416;2023-05-23T12:13:40;100979.53;;;19.83;46.68
79707;BME280;69200;53.612;-2.416;2023-05-23T12:16:07;100973.47;;;20.07;45.00
79707;BME280;69200;53.612;-2.416;2023-05-23T12:18:33;100980.88;;;19.86;45.20
79707;BME280;69200;53.612;-2.416;2023-05-23T12:21:01;100983.09;;;19.79;45.89
79707;BME280;69200;53.612;-2.416;2023-05-23T12:23:27;100985.28;;;19.77;46.29
79707;BME280;69200;53.612;-2.416;2023-05-23T12:25:54;100993.28;;;19.89;45.35
79707;BME280;69200;53.612;-2.416;2023-05-23T12:28:33;100969.59;;;19.77;44.58
79707;BME280;69200;53.612;-2.416;2023-05-23T12:31:17;100973.44;;;19.71;45.38
79707;BME280;69200;53.612;-2.416;2023-05-23T12:33:44;100982.25;;;19.68;44.56
79707;BME280;69200;53.612;-2.416;2023-05-23T12:36:30;100983.81;;;19.34;43.85
79707;BME280;69200;53.612;-2.416;2023-05-23T12:39:04;100979.63;;;19.21;45.24
79707;BME280;69200;53.612;-2.416;2023-05-23T12:41:33;100986.44;;;19.03;44.44
79707;BME280;69200;53.612;-2.416;2023-05-23T12:43:58;100979.69;;;19.46;43.08
79707;BME280;69200;53.612;-2.416;2023-05-23T12:46:25;100982.38;;;19.21;44.08
79707;BME280;69200;53.612;-2.416;2023-05-23T12:48:52;100988.59;;;19.74;43.05
79707;BME280;69200;53.612;-2.416;2023-05-23T12:51:18;100978.97;;;19.76;41.96
79707;BME280;69200;53.612;-2.416;2023-05-23T12:53:43;100978.13;;;19.86;41.18
79707;BME280;69200;53.612;-2.416;2023-05-23T12:56:09;100980.88;;;19.71;41.50
79707;BME280;69200;53.612;-2.416;2023-05-23T12:58:35;100973.84;;;19.17;40.99
79707;BME280;69200;53.612;-2.416;2023-05-23T13:01:00;100974.72;;;19.38;42.17
79707;BME280;69200;53.612;-2.416;2023-05-23T13:03:27;100982.78;;;19.60;40.85
79707;BME280;69200;53.612;-2.416;2023-05-23T13:05:55;100968.13;;;19.44;39.88